Time;durP1;ratioP1;P1;durP2;ratioP2;P2;SDS_P1;SDS_P2;PMS_P1;PMS_P2;Temp;Humidity;BMP_temperature;BMP_pressure;BME280_temperature;BME280_humidity;BME280_pressure;Samples;Min_cycle;Max_cycle;Signal;HPM_P1;HPM_P2
2023/10/31 00:00:47;;;;;;;0.70;0.70;;;;;;;10.79;100.00;97016.47;4088583;28;20286;-88
2023/10/31 00:02:49;;;;;;;0.80;0.80;;;;;;;10.84;100.00;97019.97;4072664;29;20209;-88
2023/10/31 00:04:50;;;;;;;1.55;0.52;;;;;;;10.79;100.00;97017.28;4080317;29;20208;-88
2023/10/31 00:06:52;;;;;;;0.60;0.60;;;;;;;10.83;100.00;97021.06;4076441;29;20287;-89
2023/10/31 00:08:53;;;;;;;0.80;0.50;;;;;;;10.76;100.00;97011.56;4078819;29;20220;-88
2023/10/31 00:10:55;;;;;;;0.50;0.50;;;;;;;10.75;100.00;97009.13;4087227;28;20283;-89
2023/10/31 00:12:56;;;;;;;0.50;0.50;;;;;;;10.75;100.00;97001.72;4088386;28;20289;-88
2023/10/31 00:14:58;;;;;;;0.60;0.60;;;;;;;10.71;100.00;97013.53;4088624;28;20231;-89
2023/10/31 00:16:59;;;;;;;0.80;0.80;;;;;;;10.75;100.00;97014.59;4079174;29;20270;-88
2023/10/31 00:19:02;;;;;;;1.13;1.13;;;;;;;10.70;100.00;97023.69;4076321;29;20212;-88
2023/10/31 00:21:05;;;;;;;0.50;0.50;;;;;;;10.68;100.00;97025.06;4078984;28;20292;-89
2023/10/31 00:23:07;;;;;;;0.40;0.40;;;;;;;10.68;100.00;97036.00;4073960;29;20216;-88
2023/10/31 00:25:08;;;;;;;0.50;0.50;;;;;;;10.70;100.00;97042.00;4072820;29;20657;-87
2023/10/31 00:27:10;;;;;;;0.50;0.50;;;;;;;10.60;100.00;97039.34;4095854;28;20223;-88
2023/10/31 00:29:11;;;;;;;0.60;0.60;;;;;;;10.64;100.00;97040.41;4072326;29;20767;-89
2023/10/31 00:31:14;;;;;;;0.45;0.45;;;;;;;10.63;100.00;97034.13;4077543;29;20251;-88
2023/10/31 00:33:15;;;;;;;0.50;0.50;;;;;;;10.63;100.00;97036.03;4095697;28;20245;-89
2023/10/31 00:35:17;;;;;;;0.60;0.60;;;;;;;10.60;100.00;97028.41;4074730;29;20291;-87
2023/10/31 00:37:19;;;;;;;0.70;0.70;;;;;;;10.66;100.00;97035.47;4075445;29;20204;-89
2023/10/31 00:39:21;;;;;;;0.60;0.60;;;;;;;10.57;100.00;97031.72;4095912;28;20235;-88
2023/10/31 00:41:23;;;;;;;0.70;0.70;;;;;;;10.69;100.00;97034.91;4081111;29;20378;-89
2023/10/31 00:43:25;;;;;;;0.60;0.60;;;;;;;10.52;100.00;97021.63;4074767;29;20236;-88
2023/10/31 00:45:26;;;;;;;0.50;0.50;;;;;;;10.51;100.00;97024.66;4093703;28;20235;-87
2023/10/31 00:47:28;;;;;;;0.50;0.50;;;;;;;10.63;100.00;97033.31;4080143;29;20212;-89
2023/10/31 00:49:29;;;;;;;0.50;0.50;;;;;;;10.58;100.00;97030.59;4079394;29;20292;-87
2023/10/31 00:51:31;;;;;;;0.50;0.50;;;;;;;10.51;100.00;97035.59;4088142;28;20258;-88
2023/10/31 00:53:33;;;;;;;0.60;0.60;;;;;;;10.44;100.00;97046.03;4071772;29;20621;-88
2023/10/31 00:55:34;;;;;;;0.50;0.50;;;;;;;10.53;100.00;97036.13;4078812;29;20208;-88
2023/10/31 00:57:37;;;;;;;0.70;0.70;;;;;;;10.48;100.00;97041.66;4072446;29;20255;-87
2023/10/31 00:59:39;;;;;;;0.93;0.75;;;;;;;10.46;100.00;97043.81;4080009;29;20231;-88
2023/10/31 01:01:42;;;;;;;0.70;0.60;;;;;;;10.45;100.00;97047.66;4086620;28;20294;-88
2023/10/31 01:03:48;;;;;;;0.40;0.40;;;;;;;10.50;100.00;97044.91;4091735;28;20239;-88
2023/10/31 01:05:50;;;;;;;0.52;0.52;;;;;;;10.54;100.00;97057.72;4076359;29;20239;-88
2023/10/31 01:07:51;;;;;;;0.60;0.60;;;;;;;10.55;100.00;97048.41;4086283;28;20211;-88
2023/10/31 01:09:53;;;;;;;0.50;0.50;;;;;;;10.60;100.00;97053.00;4085865;28;20215;-88
2023/10/31 01:11:54;;;;;;;1.75;0.63;;;;;;;10.58;100.00;97058.78;4074885;29;20315;-88
2023/10/31 01:13:56;;;;;;;0.40;0.40;;;;;;;10.60;100.00;97053.00;4094143;28;20662;-89
2023/10/31 01:15:57;;;;;;;0.60;0.60;;;;;;;10.55;100.00;97047.59;4079140;29;20264;-88
2023/10/31 01:17:59;;;;;;;0.47;0.47;;;;;;;10.62;100.00;97042.63;4097015;28;20203;-89
2023/10/31 01:20:00;;;;;;;0.50;0.50;;;;;;;10.61;100.00;97044.53;4075457;29;20219;-88
2023/10/31 01:22:02;;;;;;;0.47;0.47;;;;;;;10.58;100.00;97047.03;4080677;29;20702;-89
2023/10/31 01:24:04;;;;;;;0.60;0.60;;;;;;;10.68;100.00;97055.16;4090626;28;20211;-88
2023/10/31 01:26:05;;;;;;;0.60;0.60;;;;;;;10.64;100.00;97056.81;4087372;29;20299;-88
2023/10/31 01:28:07;;;;;;;0.70;0.70;;;;;;;10.63;100.00;97049.72;4093663;29;20188;-88
2023/10/31 01:30:09;;;;;;;0.60;0.60;;;;;;;10.60;100.00;97044.81;4105780;28;20214;-87
2023/10/31 01:32:11;;;;;;;0.57;0.57;;;;;;;10.59;100.00;97043.19;4084037;28;20235;-88
2023/10/31 01:34:23;;;;;;;0.70;0.70;;;;;;;10.64;100.00;97051.34;4093503;28;20210;-88
2023/10/31 01:36:27;;;;;;;0.40;0.40;;;;;;;10.54;100.00;97052.25;4080629;29;20211;-87
2023/10/31 01:38:29;;;;;;;0.40;0.40;;;;;;;10.55;100.00;97042.94;4089336;29;20779;-85
2023/10/31 01:40:30;;;;;;;0.50;0.50;;;;;;;10.47;100.00;97042.75;4090418;29;20277;-87
2023/10/31 01:42:32;;;;;;;0.60;0.60;;;;;;;10.45;100.00;97047.66;4091622;28;20706;-88
2023/10/31 01:44:33;;;;;;;0.55;0.55;;;;;;;10.47;100.00;97048.22;4093070;28;20295;-87
2023/10/31 01:46:35;;;;;;;0.50;0.50;;;;;;;10.53;100.00;97047.06;4092503;28;20226;-88
2023/10/31 01:48:37;;;;;;;0.80;0.50;;;;;;;10.57;100.00;97040.75;4098685;28;20751;-87
2023/10/31 01:50:39;;;;;;;0.50;0.50;;;;;;;10.54;100.00;97045.97;4074830;29;20209;-87
2023/10/31 01:52:40;;;;;;;9.57;0.60;;;;;;;10.53;100.00;97038.84;4092863;28;20235;-87
2023/10/31 01:54:43;;;;;;;1.00;1.00;;;;;;;10.50;100.00;97053.94;4086620;28;20211;-88
2023/10/31 01:56:45;;;;;;;0.60;0.60;;;;;;;10.53;100.00;97039.69;4091861;28;20242;-86
2023/10/31 01:58:48;;;;;;;0.60;0.60;;;;;;;10.49;100.00;97037.81;4069966;29;20232;-88
2023/10/31 02:00:50;;;;;;;0.50;0.50;;;;;;;10.60;100.00;97053.00;4086221;28;20227;-86
2023/10/31 02:02:54;;;;;;;0.65;0.65;;;;;;;10.52;100.00;97048.16;4070413;29;20217;-88
2023/10/31 02:04:56;;;;;;;0.57;0.57;;;;;;;10.49;100.00;97054.22;4079916;29;20242;-88
2023/10/31 02:06:57;;;;;;;1.05;1.05;;;;;;;10.55;100.00;97047.59;4086842;28;20215;-87
2023/10/31 02:08:59;;;;;;;0.93;0.70;;;;;;;10.57;100.00;97045.38;4088587;28;20310;-88
2023/10/31 02:11:00;;;;;;;1.00;0.60;;;;;;;10.57;100.00;97045.38;4074906;29;20743;-87
2023/10/31 02:13:15;;;;;;;0.50;0.50;;;;;;;10.56;100.00;97054.69;4090578;28;20290;-86
2023/10/31 02:15:17;;;;;;;0.70;0.70;;;;;;;10.58;100.00;97057.97;4079220;29;20680;-88
2023/10/31 02:17:18;;;;;;;0.55;0.55;;;;;;;10.50;100.00;97066.78;4081835;29;20271;-88
2023/10/31 02:19:20;;;;;;;0.55;0.55;;;;;;;10.52;100.00;97059.09;4072453;29;20674;-87
2023/10/31 02:21:23;;;;;;;0.60;0.60;;;;;;;10.53;100.00;97068.94;4086342;28;20270;-87
2023/10/31 02:23:24;;;;;;;0.50;0.50;;;;;;;10.56;100.00;97057.44;4088722;28;20212;-87
2023/10/31 02:25:26;;;;;;;0.60;0.60;;;;;;;10.53;100.00;97063.47;4076250;29;20672;-88
2023/10/31 02:27:27;;;;;;;0.52;0.52;;;;;;;10.51;100.00;97058.31;4090607;28;20243;-88
2023/10/31 02:29:29;;;;;;;0.55;0.55;;;;;;;10.47;100.00;97061.91;4079016;29;20252;-86
2023/10/31 02:31:30;;;;;;;0.60;0.60;;;;;;;10.51;100.00;97063.78;4079316;29;20224;-88
2023/10/31 02:33:32;;;;;;;0.57;0.57;;;;;;;10.55;100.00;97069.47;4072739;29;20333;-88
2023/10/31 02:35:34;;;;;;;0.75;0.70;;;;;;;10.57;100.00;97067.28;4080519;29;20580;-87
2023/10/31 02:37:36;;;;;;;0.50;0.50;;;;;;;10.52;100.00;97061.84;4088318;28;20768;-87
2023/10/31 02:39:37;;;;;;;0.63;0.63;;;;;;;10.55;100.00;97064.00;4077036;29;20200;-87
2023/10/31 02:41:39;;;;;;;0.60;0.60;;;;;;;10.44;100.00;97070.66;4072727;29;21082;-87
2023/10/31 02:43:41;;;;;;;0.50;0.50;;;;;;;10.51;100.00;97079.34;4090286;28;20204;-87
2023/10/31 02:45:42;;;;;;;0.43;0.43;;;;;;;10.44;100.00;97079.69;4074978;29;20204;-88
2023/10/31 02:47:44;;;;;;;0.68;0.68;;;;;;;10.43;100.00;97085.44;4087596;28;20200;-87
2023/10/31 02:49:45;;;;;;;0.80;0.80;;;;;;;10.48;100.00;97097.13;4089206;28;20223;-87
2023/10/31 02:51:47;;;;;;;0.57;0.57;;;;;;;10.47;100.00;97087.31;4076644;29;20228;-86
2023/10/31 02:53:48;;;;;;;3.63;1.33;;;;;;;10.39;100.00;97087.91;4088472;28;20267;-88
2023/10/31 02:55:50;;;;;;;0.60;0.60;;;;;;;10.42;100.00;97089.25;4089223;28;20289;-88
2023/10/31 02:57:53;;;;;;;2.03;0.65;;;;;;;10.35;100.00;97096.97;4089249;28;20211;-87
2023/10/31 02:59:54;;;;;;;0.60;0.60;;;;;;;10.39;100.00;97093.38;4074588;29;20204;-88
2023/10/31 03:01:56;;;;;;;5.05;1.00;;;;;;;10.22;100.00;97089.41;4088877;28;20660;-86
2023/10/31 03:04:00;;;;;;;0.63;0.63;;;;;;;10.30;100.00;97094.25;4073589;29;20692;-88
2023/10/31 03:06:01;;;;;;;1.42;1.42;;;;;;;10.31;100.00;97090.41;4076324;29;20260;-88
2023/10/31 03:08:03;;;;;;;0.70;0.70;;;;;;;10.25;100.00;97091.53;4088699;28;20214;-86
2023/10/31 03:10:05;;;;;;;0.60;0.60;;;;;;;10.29;100.00;97096.16;4088810;28;20241;-87
2023/10/31 03:12:07;;;;;;;0.60;0.60;;;;;;;10.29;100.00;97098.09;4085699;28;20357;-87
2023/10/31 03:14:08;;;;;;;0.60;0.60;;;;;;;10.28;100.00;97107.41;4086646;28;20676;-88
2023/10/31 03:16:10;;;;;;;0.45;0.45;;;;;;;10.26;100.00;97093.19;4078127;29;20208;-87
2023/10/31 03:18:14;;;;;;;0.50;0.50;;;;;;;10.23;100.00;97100.06;4071082;29;20669;-87
2023/10/31 03:20:16;;;;;;;0.90;0.90;;;;;;;10.27;100.00;97105.78;4073996;29;20228;-84
2023/10/31 03:22:18;;;;;;;5.03;1.05;;;;;;;10.28;100.00;97104.66;4084278;29;20238;-87
2023/10/31 03:24:19;;;;;;;1.85;0.90;;;;;;;10.29;100.00;97103.56;4072060;29;20212;-88
2023/10/31 03:26:21;;;;;;;14.50;0.63;;;;;;;10.29;100.00;97109.03;4088361;28;20215;-87
2023/10/31 03:28:24;;;;;;;0.60;0.60;;;;;;;10.29;100.00;97109.03;4071254;29;20295;-87
2023/10/31 03:30:28;;;;;;;0.60;0.60;;;;;;;10.28;100.00;97107.41;4088329;28;20692;-88
2023/10/31 03:32:29;;;;;;;0.50;0.50;;;;;;;10.28;100.00;97107.41;4079095;29;20239;-87
2023/10/31 03:34:31;;;;;;;0.63;0.63;;;;;;;10.25;100.00;97110.69;4074389;29;20272;-87
2023/10/31 03:36:32;;;;;;;0.60;0.60;;;;;;;10.30;100.00;97113.41;4073005;29;20717;-88
2023/10/31 03:38:35;;;;;;;0.50;0.50;;;;;;;10.29;100.00;97109.03;4072967;29;20235;-87
2023/10/31 03:40:37;;;;;;;0.57;0.57;;;;;;;10.23;100.00;97121.09;4073778;29;20795;-87
2023/10/31 03:42:38;;;;;;;0.50;0.50;;;;;;;10.28;100.00;97118.34;4088692;28;20211;-87
2023/10/31 03:44:40;;;;;;;0.82;0.82;;;;;;;10.28;100.00;97118.34;4070199;29;20243;-88
2023/10/31 03:46:41;;;;;;;0.60;0.60;;;;;;;10.32;100.00;97122.13;4071760;29;20241;-88
2023/10/31 03:48:43;;;;;;;0.90;0.75;;;;;;;10.28;100.00;97129.28;4071867;29;20216;-87
2023/10/31 03:50:45;;;;;;;0.60;0.60;;;;;;;10.27;100.00;97135.84;4074713;29;20315;-87
2023/10/31 03:52:46;;;;;;;0.57;0.57;;;;;;;10.34;100.00;97144.56;4079082;29;20204;-88
2023/10/31 03:54:48;;;;;;;0.50;0.50;;;;;;;10.21;100.00;97150.63;4074156;29;20276;-88
2023/10/31 03:56:49;;;;;;;1.27;1.27;;;;;;;10.24;100.00;97150.06;4094796;28;20568;-86
2023/10/31 03:58:51;;;;;;;0.70;0.70;;;;;;;10.22;100.00;97157.72;4079248;29;20223;-88
2023/10/31 04:00:52;;;;;;;0.40;0.40;;;;;;;10.22;100.00;97157.72;4087973;28;20619;-86
2023/10/31 04:02:55;;;;;;;1.30;0.60;;;;;;;10.27;100.00;97166.72;4072925;29;20490;-87
2023/10/31 04:04:56;;;;;;;0.80;0.80;;;;;;;10.22;100.00;97163.19;4077156;29;20290;-87
2023/10/31 04:07:00;;;;;;;1.20;0.80;;;;;;;10.25;100.00;97162.63;4086878;28;20216;-87
2023/10/31 04:09:02;;;;;;;0.80;0.80;;;;;;;10.12;100.00;97165.97;4087393;28;20641;-87
2023/10/31 04:11:03;;;;;;;0.50;0.50;;;;;;;10.14;100.00;97164.59;4071506;29;20227;-88
2023/10/31 04:13:05;;;;;;;0.77;0.77;;;;;;;10.14;100.00;97178.25;4073142;29;20326;-87
2023/10/31 04:15:07;;;;;;;0.57;0.57;;;;;;;10.11;100.00;97172.53;4069564;29;20232;-87
2023/10/31 04:17:09;;;;;;;0.55;0.55;;;;;;;10.14;100.00;97172.00;4089902;28;20302;-86
2023/10/31 04:19:14;;;;;;;0.63;0.63;;;;;;;10.06;100.00;97176.09;4076220;29;20234;-86
2023/10/31 04:21:16;;;;;;;7.72;0.90;;;;;;;10.11;100.00;97178.81;4087564;28;20246;-87
2023/10/31 04:23:17;;;;;;;0.88;0.88;;;;;;;10.11;100.00;97180.72;4074442;29;20215;-86
2023/10/31 04:25:19;;;;;;;0.70;0.70;;;;;;;10.13;100.00;97184.81;4074358;29;20217;-86
2023/10/31 04:27:20;;;;;;;0.50;0.50;;;;;;;10.14;100.00;97183.72;4071740;29;20679;-88
2023/10/31 04:29:22;;;;;;;1.30;0.80;;;;;;;10.12;100.00;97185.94;4087604;28;20300;-87
2023/10/31 04:31:24;;;;;;;0.50;0.50;;;;;;;10.12;100.00;97190.56;4078173;29;20725;-87
2023/10/31 04:33:41;;;;;;;0.80;0.80;;;;;;;10.04;100.00;97185.69;4076443;29;20208;-88
2023/10/31 04:35:43;;;;;;;0.60;0.60;;;;;;;10.06;100.00;97180.75;4076250;29;20208;-86
2023/10/31 04:37:44;;;;;;;2.30;0.77;;;;;;;10.05;100.00;97190.03;4095113;28;20199;-87
2023/10/31 04:39:46;;;;;;;0.93;0.93;;;;;;;10.00;100.00;97187.28;4086661;28;20656;-87
2023/10/31 04:41:47;;;;;;;0.80;0.80;;;;;;;10.00;100.00;97177.19;4086693;28;20231;-88
2023/10/31 04:43:49;;;;;;;0.70;0.70;;;;;;;10.06;100.00;97180.75;4072401;29;20227;-87
2023/10/31 04:45:50;;;;;;;0.70;0.70;;;;;;;10.06;100.00;97180.75;4088418;28;20692;-87
2023/10/31 04:47:53;;;;;;;1.55;1.45;;;;;;;10.06;100.00;97169.81;4087801;28;20702;-88
2023/10/31 04:49:54;;;;;;;0.93;0.93;;;;;;;10.01;100.00;97178.81;4079538;29;20223;-87
2023/10/31 04:51:56;;;;;;;0.90;0.90;;;;;;;10.01;100.00;97172.56;4073612;29;20719;-87
2023/10/31 04:53:58;;;;;;;0.63;0.60;;;;;;;10.05;100.00;97179.13;4088641;28;20239;-88
2023/10/31 04:55:59;;;;;;;11.68;0.90;;;;;;;10.03;100.00;97175.81;4084432;28;20704;-87
2023/10/31 04:58:01;;;;;;;0.60;0.60;;;;;;;10.01;100.00;97175.28;4077353;29;20208;-87
2023/10/31 05:00:05;;;;;;;0.80;0.80;;;;;;;9.97;100.00;97183.22;4093472;28;20215;-87
2023/10/31 05:02:07;;;;;;;0.95;0.95;;;;;;;9.96;100.00;97183.50;4071745;29;20232;-88
2023/10/31 05:04:09;;;;;;;0.68;0.68;;;;;;;10.03;100.00;97186.75;4094793;28;20246;-88
2023/10/31 05:06:19;;;;;;;0.57;0.57;;;;;;;9.96;100.00;97181.56;4072144;29;20283;-88
2023/10/31 05:08:20;;;;;;;0.70;0.70;;;;;;;10.01;100.00;97187.03;4078532;29;20208;-87
2023/10/31 05:10:26;;;;;;;0.50;0.50;;;;;;;9.96;100.00;97192.50;4076255;29;20242;-87
2023/10/31 05:12:28;;;;;;;0.82;0.82;;;;;;;10.01;100.00;97189.75;4077731;29;20214;-88
2023/10/31 05:14:30;;;;;;;0.70;0.70;;;;;;;10.05;100.00;97200.97;4079470;29;20553;-86
2023/10/31 05:16:31;;;;;;;0.68;0.68;;;;;;;10.02;100.00;97206.97;4079107;29;20208;-88
2023/10/31 05:18:33;;;;;;;0.60;0.60;;;;;;;10.02;100.00;97196.84;4071174;29;20212;-87
2023/10/31 05:20:34;;;;;;;0.50;0.50;;;;;;;9.95;100.00;97209.19;4087064;28;20292;-88
2023/10/31 05:22:38;;;;;;;1.33;0.75;;;;;;;10.04;100.00;97207.53;4071812;29;20258;-88
2023/10/31 05:24:39;;;;;;;1.80;1.70;;;;;;;10.05;100.00;97212.75;4068927;29;20212;-88
2023/10/31 05:26:42;;;;;;;0.50;0.50;;;;;;;10.02;100.00;97202.31;4086575;28;20204;-88
2023/10/31 05:28:44;;;;;;;0.95;0.95;;;;;;;9.96;100.00;97203.41;4070510;29;20219;-89
2023/10/31 05:30:46;;;;;;;0.90;0.90;;;;;;;10.00;100.00;97209.16;4077057;29;20767;-89
2023/10/31 05:32:47;;;;;;;0.60;0.60;;;;;;;10.02;100.00;97224.19;4071510;29;20247;-87
2023/10/31 05:34:49;;;;;;;0.65;0.65;;;;;;;9.99;100.00;97213.81;4078511;29;20287;-88
2023/10/31 05:36:56;;;;;;;0.95;0.95;;;;;;;9.97;100.00;97226.94;4094085;28;20263;-89
2023/10/31 05:38:58;;;;;;;0.75;0.75;;;;;;;10.04;100.00;97221.19;4071296;29;20224;-88
2023/10/31 05:41:00;;;;;;;0.60;0.60;;;;;;;10.05;100.00;97217.38;4073704;28;20751;-88
2023/10/31 05:43:02;;;;;;;0.60;0.60;;;;;;;10.00;100.00;97225.53;4089115;28;20233;-89
2023/10/31 05:45:04;;;;;;;0.50;0.50;;;;;;;10.02;100.00;97228.84;4083800;28;20223;-88
2023/10/31 05:47:06;;;;;;;0.70;0.70;;;;;;;9.96;100.00;97225.28;4073271;29;20277;-87
2023/10/31 05:49:08;;;;;;;1.65;1.55;;;;;;;10.02;100.00;97240.56;4076040;29;20240;-87
2023/10/31 05:51:16;;;;;;;0.63;0.63;;;;;;;10.00;100.00;97250.13;4086245;28;20267;-86
2023/10/31 05:53:17;;;;;;;1.02;1.02;;;;;;;9.96;100.00;97251.81;4073658;29;20252;-88
2023/10/31 05:55:19;;;;;;;0.70;0.70;;;;;;;9.98;100.00;97255.06;4070652;29;20241;-88
2023/10/31 05:57:20;;;;;;;0.60;0.60;;;;;;;9.96;100.00;97254.53;4074603;29;20275;-87
2023/10/31 05:59:22;;;;;;;0.70;0.70;;;;;;;9.94;100.00;97254.00;4074860;29;20275;-87
2023/10/31 06:01:23;;;;;;;0.68;0.52;;;;;;;10.02;100.00;97261.63;4094148;28;20263;-87
2023/10/31 06:03:25;;;;;;;0.88;0.68;;;;;;;9.99;100.00;97262.16;4077729;29;20692;-88
2023/10/31 06:05:27;;;;;;;0.73;0.73;;;;;;;9.99;100.00;97267.63;4090753;28;20205;-89
2023/10/31 06:07:28;;;;;;;0.85;0.85;;;;;;;10.04;100.00;97270.41;4074237;29;20218;-87
2023/10/31 06:09:44;;;;;;;0.60;0.60;;;;;;;10.02;100.00;97272.56;4076406;29;20208;-88
2023/10/31 06:11:47;;;;;;;0.60;0.60;;;;;;;9.99;100.00;97273.09;4078659;29;20224;-89
2023/10/31 06:13:49;;;;;;;0.43;0.43;;;;;;;10.01;100.00;97279.13;4080089;29;20212;-88
2023/10/31 06:15:50;;;;;;;0.60;0.60;;;;;;;10.04;100.00;97284.06;4095897;28;20231;-88
2023/10/31 06:17:52;;;;;;;1.27;0.95;;;;;;;10.01;100.00;97282.66;4088338;28;20464;-88
2023/10/31 06:19:53;;;;;;;1.10;1.10;;;;;;;10.00;100.00;97296.59;4073773;29;20208;-88
2023/10/31 06:21:55;;;;;;;0.85;0.85;;;;;;;10.01;100.00;97292.78;4076885;29;20280;-86
2023/10/31 06:23:58;;;;;;;0.63;0.63;;;;;;;10.06;100.00;97290.06;4090303;28;20211;-87
2023/10/31 06:26:00;;;;;;;0.68;0.68;;;;;;;10.00;100.00;97313.00;4079981;29;20676;-87
2023/10/31 06:28:02;;;;;;;0.88;0.88;;;;;;;9.95;100.00;97310.28;4079211;29;20252;-88
2023/10/31 06:30:04;;;;;;;0.45;0.45;;;;;;;10.03;100.00;97323.38;4075388;29;20681;-87
2023/10/31 06:32:21;;;;;;;0.70;0.70;;;;;;;10.00;100.00;97323.91;4082020;29;20274;-87
2023/10/31 06:34:22;;;;;;;0.70;0.70;;;;;;;9.94;100.00;97319.59;4078977;29;21185;-87
2023/10/31 06:36:24;;;;;;;0.52;0.52;;;;;;;9.97;100.00;97329.94;4077314;29;20217;-87
2023/10/31 06:38:27;;;;;;;0.50;0.50;;;;;;;9.99;100.00;97327.75;4092371;28;20658;-87
2023/10/31 06:40:29;;;;;;;0.73;0.73;;;;;;;9.97;100.00;97330.78;4079415;29;20282;-87
2023/10/31 06:42:30;;;;;;;0.70;0.70;;;;;;;9.94;100.00;97325.03;4073656;29;20228;-87
2023/10/31 06:44:32;;;;;;;1.65;0.75;;;;;;;9.91;100.00;97333.78;4080074;29;20757;-87
2023/10/31 06:46:33;;;;;;;0.63;0.63;;;;;;;9.96;100.00;97336.50;4086468;28;20211;-86
2023/10/31 06:48:35;;;;;;;0.85;0.85;;;;;;;10.02;100.00;97343.63;4073307;29;20265;-85
2023/10/31 06:50:37;;;;;;;7.05;0.75;;;;;;;10.03;100.00;97347.97;4078642;29;20259;-87
2023/10/31 06:52:38;;;;;;;0.55;0.55;;;;;;;10.00;100.00;97345.78;4078371;29;20207;-87
2023/10/31 06:54:40;;;;;;;0.80;0.80;;;;;;;10.03;100.00;97350.72;4090371;28;20641;-86
2023/10/31 06:56:41;;;;;;;0.55;0.55;;;;;;;9.98;100.00;97358.91;4090033;28;20290;-86
2023/10/31 06:58:43;;;;;;;0.60;0.60;;;;;;;10.02;100.00;97362.75;4072930;29;20295;-88
2023/10/31 07:00:45;;;;;;;0.70;0.70;;;;;;;10.03;100.00;97373.41;4089515;28;20239;-86
2023/10/31 07:03:08;;;;;;;1.17;1.15;;;;;;;10.05;100.00;97378.59;4089651;28;20720;-88
2023/10/31 07:05:13;;;;;;;0.70;0.70;;;;;;;10.04;100.00;97379.72;4075080;28;20207;-87
2023/10/31 07:07:22;;;;;;;0.60;0.43;;;;;;;10.06;100.00;97377.50;4081733;29;20208;-88
2023/10/31 07:09:25;;;;;;;0.47;0.47;;;;;;;10.07;100.00;97387.38;4074049;29;20617;-86
2023/10/31 07:11:28;;;;;;;0.50;0.50;;;;;;;10.02;100.00;97387.34;4075574;29;20232;-86
2023/10/31 07:13:30;;;;;;;1.13;0.90;;;;;;;10.05;100.00;97393.09;4071474;29;20208;-87
2023/10/31 07:15:32;;;;;;;0.73;0.60;;;;;;;10.06;100.00;97402.09;4078196;29;20712;-86
2023/10/31 07:17:33;;;;;;;1.27;0.70;;;;;;;10.07;100.00;97395.56;4080546;29;20375;-88
2023/10/31 07:19:35;;;;;;;0.60;0.55;;;;;;;10.11;100.00;97402.09;4095956;28;20750;-88
2023/10/31 07:21:36;;;;;;;0.73;0.73;;;;;;;10.15;100.00;97395.81;4091296;28;20228;-88
2023/10/31 07:23:38;;;;;;;0.50;0.50;;;;;;;10.13;100.00;97402.66;4089265;28;20766;-87
2023/10/31 07:25:39;;;;;;;0.95;0.95;;;;;;;10.11;100.00;97396.66;4077906;29;20319;-88
2023/10/31 07:27:53;;;;;;;1.75;0.60;;;;;;;10.13;100.00;97398.00;4077011;29;20263;-88
2023/10/31 07:29:54;;;;;;;0.88;0.80;;;;;;;10.14;100.00;97396.13;4073113;29;20305;-87
2023/10/31 07:31:56;;;;;;;0.85;0.82;;;;;;;10.20;100.00;97400.44;4076422;29;20263;-87
2023/10/31 07:33:58;;;;;;;5.38;0.60;;;;;;;10.17;100.00;97401.84;4069748;29;20216;-87
2023/10/31 07:35:59;;;;;;;0.63;0.63;;;;;;;10.23;100.00;97399.91;4074720;29;20291;-87
2023/10/31 07:38:01;;;;;;;0.70;0.70;;;;;;;10.26;100.00;97404.81;4075870;29;20208;-87
2023/10/31 07:40:04;;;;;;;0.70;0.70;;;;;;;10.21;100.00;97413.06;4072454;29;20649;-89
2023/10/31 07:42:06;;;;;;;0.70;0.70;;;;;;;10.26;100.00;97405.66;4076942;29;20244;-88
2023/10/31 07:44:07;;;;;;;0.60;0.60;;;;;;;10.35;100.00;97405.94;4070461;29;20253;-86
2023/10/31 07:46:09;;;;;;;0.68;0.68;;;;;;;10.37;100.00;97422.88;4090572;28;20222;-87
2023/10/31 07:48:12;;;;;;;0.52;0.52;;;;;;;10.33;100.00;97424.50;4080618;29;21108;-87
2023/10/31 07:50:13;;;;;;;0.68;0.68;;;;;;;10.40;100.00;97419.56;4090964;28;20951;-89
2023/10/31 07:52:15;;;;;;;2.55;0.60;;;;;;;10.38;100.00;97424.50;4073035;29;20228;-88
2023/10/31 07:54:18;;;;;;;0.60;0.60;;;;;;;10.48;100.00;97433.50;4092010;28;20231;-87
2023/10/31 07:56:23;;;;;;;0.82;0.70;;;;;;;10.51;100.00;97413.00;4075109;29;20291;-88
2023/10/31 07:58:24;;;;;;;0.70;0.70;;;;;;;10.51;100.00;97423.94;4079815;29;20208;-88
2023/10/31 08:00:26;;;;;;;0.85;0.65;;;;;;;10.54;100.00;97417.94;4078394;29;20211;-87
2023/10/31 08:02:28;;;;;;;0.60;0.60;;;;;;;10.59;100.00;97432.41;4077263;29;20878;-87
2023/10/31 08:04:30;;;;;;;1.75;0.70;;;;;;;10.58;100.00;97413.53;4074462;29;20263;-88
2023/10/31 08:06:31;;;;;;;0.50;0.50;;;;;;;10.63;100.00;97419.81;4077788;29;20207;-88
2023/10/31 08:08:34;;;;;;;0.90;0.85;;;;;;;10.59;100.00;97415.16;4072178;29;20216;-88
2023/10/31 08:10:35;;;;;;;1.45;0.80;;;;;;;10.64;100.00;97417.91;4072771;29;20608;-87
2023/10/31 08:12:37;;;;;;;0.77;0.77;;;;;;;10.65;100.00;97425.00;4087919;28;20611;-87
2023/10/31 08:14:38;;;;;;;1.15;0.50;;;;;;;10.61;100.00;97430.22;4078115;29;20239;-88
2023/10/31 08:16:40;;;;;;;0.50;0.50;;;;;;;10.63;100.00;97435.41;4090160;28;20286;-88
2023/10/31 08:18:41;;;;;;;0.70;0.70;;;;;;;10.62;100.00;97436.50;4073180;29;20208;-87
2023/10/31 08:20:50;;;;;;;1.13;0.95;;;;;;;10.60;100.00;97444.16;4088515;28;20230;-88
2023/10/31 08:22:52;;;;;;;0.57;0.57;;;;;;;10.67;100.00;97445.53;4069775;29;20212;-88
2023/10/31 08:24:54;;;;;;;4.05;0.80;;;;;;;10.65;100.00;97452.34;4078723;29;20251;-87
2023/10/31 08:26:55;;;;;;;0.60;0.60;;;;;;;10.74;100.00;97440.56;4084639;28;20204;-89
2023/10/31 08:28:57;;;;;;;7.38;0.63;;;;;;;10.82;100.00;97447.41;4074713;29;20236;-88
2023/10/31 08:30:58;;;;;;;9.75;0.90;;;;;;;11.00;100.00;97447.63;4077244;29;20647;-88
2023/10/31 08:33:00;;;;;;;0.50;0.50;;;;;;;10.92;100.00;97443.53;4070933;29;20211;-88
2023/10/31 08:35:02;;;;;;;0.80;0.65;;;;;;;10.88;100.00;97447.94;4068803;29;20216;-87
2023/10/31 08:37:03;;;;;;;0.60;0.60;;;;;;;10.88;100.00;97444.38;4090163;28;20207;-88
2023/10/31 08:39:05;;;;;;;0.55;0.55;;;;;;;10.92;100.00;97446.25;4075606;29;20216;-86
2023/10/31 08:41:09;;;;;;;1.35;1.10;;;;;;;11.04;100.00;97452.25;4070228;29;20326;-87
2023/10/31 08:43:11;;;;;;;0.75;0.75;;;;;;;11.20;100.00;97451.13;4087535;28;20220;-86
2023/10/31 08:45:15;;;;;;;0.80;0.80;;;;;;;11.21;100.00;97455.50;4071063;29;20222;-86
2023/10/31 08:47:24;;;;;;;1.15;1.05;;;;;;;11.36;100.00;97449.09;4088414;28;20246;-87
2023/10/31 08:49:25;;;;;;;0.90;0.90;;;;;;;11.27;100.00;97448.06;4089333;28;20239;-86
2023/10/31 08:51:27;;;;;;;0.70;0.70;;;;;;;11.29;100.00;97459.53;4072010;29;20224;-87
2023/10/31 08:53:28;;;;;;;0.55;0.55;;;;;;;11.32;100.00;97454.31;4070526;29;20287;-86
2023/10/31 08:55:30;;;;;;;14.38;1.00;;;;;;;11.17;100.00;97459.88;4068854;29;20220;-86
2023/10/31 08:57:33;;;;;;;8.70;1.33;;;;;;;11.43;100.00;97450.44;4088156;28;20208;-87
2023/10/31 08:59:35;;;;;;;1.58;0.70;;;;;;;11.60;100.00;97459.16;4088179;28;20212;-86
2023/10/31 09:01:36;;;;;;;0.50;0.50;;;;;;;11.43;100.00;97455.13;4090323;28;20216;-86
2023/10/31 09:03:38;;;;;;;0.88;0.70;;;;;;;11.44;100.00;97457.56;4084994;28;20218;-87
2023/10/31 09:05:40;;;;;;;0.80;0.80;;;;;;;11.53;100.00;97463.28;4069936;29;20244;-86
2023/10/31 09:07:41;;;;;;;2.90;0.98;;;;;;;11.45;100.00;97477.56;4077131;29;20645;-87
2023/10/31 09:09:43;;;;;;;0.60;0.60;;;;;;;11.72;100.00;97467.84;4072643;29;20288;-87
2023/10/31 09:11:53;;;;;;;1.00;0.70;;;;;;;11.93;100.00;97461.16;4079983;29;20319;-87
2023/10/31 09:13:55;;;;;;;1.13;1.10;;;;;;;12.05;100.00;97472.56;4074634;29;20589;-85
2023/10/31 09:16:00;;;;;;;3.38;0.80;;;;;;;12.09;100.00;97465.44;4086694;28;20219;-86
2023/10/31 09:18:02;;;;;;;0.50;0.50;;;;;;;12.15;100.00;97480.75;4071374;29;20232;-87
2023/10/31 09:20:05;;;;;;;0.60;0.60;;;;;;;12.05;100.00;97474.50;4073712;29;20300;-86
2023/10/31 09:22:07;;;;;;;1.13;1.05;;;;;;;12.12;100.00;97475.00;4088233;28;20235;-85
2023/10/31 09:24:09;;;;;;;0.40;0.40;;;;;;;12.17;100.00;97478.53;4089147;29;20210;-87
2023/10/31 09:26:13;;;;;;;0.70;0.70;;;;;;;12.26;100.00;97496.03;4109578;28;20196;-86
2023/10/31 09:28:18;;;;;;;0.77;0.77;;;;;;;12.29;100.00;97492.69;4079461;28;20256;-87
2023/10/31 09:30:19;;;;;;;10.23;0.65;;;;;;;12.34;100.00;97489.94;4076719;29;20235;-86